sensor_id;sensor_type;location;lat;lon;timestamp;temperature;humidity
2603;DHT22;1311;47.966;7.958;2023-02-22T00:00:52;3.30;99.90
2603;DHT22;1311;47.966;7.958;2023-02-22T00:03:23;3.40;99.90
2603;DHT22;1311;47.966;7.958;2023-02-22T00:05:52;3.30;99.90
2603;DHT22;1311;47.966;7.958;2023-02-22T00:08:21;3.30;99.90
2603;DHT22;1311;47.966;7.958;2023-02-22T00:10:48;3.20;99.90
2603;DHT22;1311;47.966;7.958;2023-02-22T00:13:16;3.10;99.90
2603;DHT22;1311;47.966;7.958;2023-02-22T00:15:45;3.10;99.90
2603;DHT22;1311;47.966;7.958;2023-02-22T00:18:13;3.00;99.90
2603;DHT22;1311;47.966;7.958;2023-02-22T00:20:40;3.10;99.90
2603;DHT22;1311;47.966;7.958;2023-02-22T00:23:11;3.20;99.90
2603;DHT22;1311;47.966;7.958;2023-02-22T00:25:38;3.10;99.90
2603;DHT22;1311;47.966;7.958;2023-02-22T00:28:05;3.10;99.90
2603;DHT22;1311;47.966;7.958;2023-02-22T00:30:32;3.10;99.90
2603;DHT22;1311;47.966;7.958;2023-02-22T00:33:00;3.00;99.90
2603;DHT22;1311;47.966;7.958;2023-02-22T00:35:29;3.00;99.90
2603;DHT22;1311;47.966;7.958;2023-02-22T00:37:58;3.00;99.90
2603;DHT22;1311;47.966;7.958;2023-02-22T00:40:26;3.00;99.90
2603;DHT22;1311;47.966;7.958;2023-02-22T00:42:55;3.00;99.90
2603;DHT22;1311;47.966;7.958;2023-02-22T00:45:24;2.90;99.90
2603;DHT22;1311;47.966;7.958;2023-02-22T00:47:51;2.90;99.90
2603;DHT22;1311;47.966;7.958;2023-02-22T00:50:21;2.90;99.90
2603;DHT22;1311;47.966;7.958;2023-02-22T00:52:49;2.80;99.90
2603;DHT22;1311;47.966;7.958;2023-02-22T00:55:19;3.00;99.90
2603;DHT22;1311;47.966;7.958;2023-02-22T00:57:47;3.00;99.90
2603;DHT22;1311;47.966;7.958;2023-02-22T01:00:16;3.00;99.90
2603;DHT22;1311;47.966;7.958;2023-02-22T01:02:43;3.00;99.90
2603;DHT22;1311;47.966;7.958;2023-02-22T01:05:12;3.00;99.90
2603;DHT22;1311;47.966;7.958;2023-02-22T01:07:40;2.90;99.90
2603;DHT22;1311;47.966;7.958;2023-02-22T01:10:08;2.80;99.90
2603;DHT22;1311;47.966;7.958;2023-02-22T01:12:35;2.70;99.90
2603;DHT22;1311;47.966;7.958;2023-02-22T01:15:03;2.70;99.90
2603;DHT22;1311;47.966;7.958;2023-02-22T01:17:30;2.70;99.90
2603;DHT22;1311;47.966;7.958;2023-02-22T01:19:58;2.60;99.90
2603;DHT22;1311;47.966;7.958;2023-02-22T01:22:24;2.80;99.90
2603;DHT22;1311;47.966;7.958;2023-02-22T01:24:53;2.80;99.90
2603;DHT22;1311;47.966;7.958;2023-02-22T01:27:20;2.80;99.90
2603;DHT22;1311;47.966;7.958;2023-02-22T01:29:48;2.80;99.90
2603;DHT22;1311;47.966;7.958;2023-02-22T01:32:15;2.80;99.90
2603;DHT22;1311;47.966;7.958;2023-02-22T01:34:41;2.70;99.90
2603;DHT22;1311;47.966;7.958;2023-02-22T01:37:08;2.60;99.90
2603;DHT22;1311;47.966;7.958;2023-02-22T01:39:35;2.60;99.90
2603;DHT22;1311;47.966;7.958;2023-02-22T01:42:03;2.50;99.90
2603;DHT22;1311;47.966;7.958;2023-02-22T01:44:32;2.40;99.90
2603;DHT22;1311;47.966;7.958;2023-02-22T01:47:00;2.40;99.90
2603;DHT22;1311;47.966;7.958;2023-02-22T01:49:30;2.50;99.90
2603;DHT22;1311;47.966;7.958;2023-02-22T01:52:00;2.60;99.90
2603;DHT22;1311;47.966;7.958;2023-02-22T01:54:31;2.50;99.90
2603;DHT22;1311;47.966;7.958;2023-02-22T01:57:04;2.60;99.90
2603;DHT22;1311;47.966;7.958;2023-02-22T01:59:35;2.80;99.90
2603;DHT22;1311;47.966;7.958;2023-02-22T02:02:04;2.80;99.90
2603;DHT22;1311;47.966;7.958;2023-02-22T02:04:32;2.60;99.90
2603;DHT22;1311;47.966;7.958;2023-02-22T02:07:02;2.60;99.90
2603;DHT22;1311;47.966;7.958;2023-02-22T02:09:34;2.50;99.90
2603;DHT22;1311;47.966;7.958;2023-02-22T02:12:07;2.50;99.90
2603;DHT22;1311;47.966;7.958;2023-02-22T02:14:35;2.50;99.90
2603;DHT22;1311;47.966;7.958;2023-02-22T02:17:06;2.40;99.90
2603;DHT22;1311;47.966;7.958;2023-02-22T02:19:43;2.30;99.90
2603;DHT22;1311;47.966;7.958;2023-02-22T02:22:30;2.30;99.90
2603;DHT22;1311;47.966;7.958;2023-02-22T02:28:34;2.20;99.90
2603;DHT22;1311;47.966;7.958;2023-02-22T02:31:20;2.20;99.90
2603;DHT22;1311;47.966;7.958;2023-02-22T02:33:54;2.20;99.90
2603;DHT22;1311;47.966;7.958;2023-02-22T02:36:28;2.20;99.90
2603;DHT22;1311;47.966;7.958;2023-02-22T02:38:59;2.20;99.90
2603;DHT22;1311;47.966;7.958;2023-02-22T02:41:34;2.20;99.90
2603;DHT22;1311;47.966;7.958;2023-02-22T02:44:04;2.10;99.90
2603;DHT22;1311;47.966;7.958;2023-02-22T02:46:33;2.20;99.90
2603;DHT22;1311;47.966;7.958;2023-02-22T02:49:06;2.20;99.90
2603;DHT22;1311;47.966;7.958;2023-02-22T02:51:36;2.20;99.90
2603;DHT22;1311;47.966;7.958;2023-02-22T02:54:05;2.00;99.90
2603;DHT22;1311;47.966;7.958;2023-02-22T02:56:33;2.00;99.90
2603;DHT22;1311;47.966;7.958;2023-02-22T02:59:00;1.90;99.90
2603;DHT22;1311;47.966;7.958;2023-02-22T03:01:44;1.90;99.90
2603;DHT22;1311;47.966;7.958;2023-02-22T03:04:25;1.80;99.90
2603;DHT22;1311;47.966;7.958;2023-02-22T03:09:54;1.70;99.90
2603;DHT22;1311;47.966;7.958;2023-02-22T03:12:33;1.70;99.90
2603;DHT22;1311;47.966;7.958;2023-02-22T03:15:11;1.70;99.90
2603;DHT22;1311;47.966;7.958;2023-02-22T03:17:45;1.70;99.90
2603;DHT22;1311;47.966;7.958;2023-02-22T03:20:19;1.70;99.90
2603;DHT22;1311;47.966;7.958;2023-02-22T03:22:51;1.60;99.90
2603;DHT22;1311;47.966;7.958;2023-02-22T03:25:23;1.60;99.90
2603;DHT22;1311;47.966;7.958;2023-02-22T03:27:56;1.60;99.90
2603;DHT22;1311;47.966;7.958;2023-02-22T03:30:31;1.60;99.90
2603;DHT22;1311;47.966;7.958;2023-02-22T03:33:04;1.60;99.90
2603;DHT22;1311;47.966;7.958;2023-02-22T03:35:41;1.60;99.90
2603;DHT22;1311;47.966;7.958;2023-02-22T03:38:11;1.60;99.90
2603;DHT22;1311;47.966;7.958;2023-02-22T03:40:42;1.60;99.90
2603;DHT22;1311;47.966;7.958;2023-02-22T03:43:13;1.60;99.90
2603;DHT22;1311;47.966;7.958;2023-02-22T03:45:42;1.70;99.90
2603;DHT22;1311;47.966;7.958;2023-02-22T03:48:16;1.70;99.90
2603;DHT22;1311;47.966;7.958;2023-02-22T03:50:48;1.60;99.90
2603;DHT22;1311;47.966;7.958;2023-02-22T03:53:15;1.60;99.90
2603;DHT22;1311;47.966;7.958;2023-02-22T03:55:43;1.60;99.90
2603;DHT22;1311;47.966;7.958;2023-02-22T03:58:11;1.50;99.90
2603;DHT22;1311;47.966;7.958;2023-02-22T04:00:39;1.50;99.90
2603;DHT22;1311;47.966;7.958;2023-02-22T04:03:09;1.40;99.90
2603;DHT22;1311;47.966;7.958;2023-02-22T04:05:36;1.40;99.90
2603;DHT22;1311;47.966;7.958;2023-02-22T04:08:04;1.50;99.90
2603;DHT22;1311;47.966;7.958;2023-02-22T04:10:31;1.60;99.90
2603;DHT22;1311;47.966;7.958;2023-02-22T04:12:59;1.50;99.90
2603;DHT22;1311;47.966;7.958;2023-02-22T04:15:25;1.40;99.90
2603;DHT22;1311;47.966;7.958;2023-02-22T04:17:52;1.50;99.90
2603;DHT22;1311;47.966;7.958;2023-02-22T04:20:19;1.50;99.90
2603;DHT22;1311;47.966;7.958;2023-02-22T04:22:50;1.40;99.90
2603;DHT22;1311;47.966;7.958;2023-02-22T04:25:18;1.50;99.90
2603;DHT22;1311;47.966;7.958;2023-02-22T04:27:45;1.50;99.90
2603;DHT22;1311;47.966;7.958;2023-02-22T04:30:12;1.50;99.90
2603;DHT22;1311;47.966;7.958;2023-02-22T04:32:39;1.50;99.90
2603;DHT22;1311;47.966;7.958;2023-02-22T04:35:06;1.50;99.90
2603;DHT22;1311;47.966;7.958;2023-02-22T04:37:33;1.50;99.90
2603;DHT22;1311;47.966;7.958;2023-02-22T04:40:00;1.50;99.90
2603;DHT22;1311;47.966;7.958;2023-02-22T04:42:28;1.60;99.90
2603;DHT22;1311;47.966;7.958;2023-02-22T04:44:55;1.60;99.90
2603;DHT22;1311;47.966;7.958;2023-02-22T04:47:21;1.60;99.90
2603;DHT22;1311;47.966;7.958;2023-02-22T04:49:48;1.60;99.90
2603;DHT22;1311;47.966;7.958;2023-02-22T04:52:15;1.60;99.90
2603;DHT22;1311;47.966;7.958;2023-02-22T04:54:42;1.60;99.90
2603;DHT22;1311;47.966;7.958;2023-02-22T04:57:08;1.80;99.90
2603;DHT22;1311;47.966;7.958;2023-02-22T04:59:37;1.90;99.90
2603;DHT22;1311;47.966;7.958;2023-02-22T05:02:05;1.90;99.90
2603;DHT22;1311;47.966;7.958;2023-02-22T05:04:31;1.90;99.90
2603;DHT22;1311;47.966;7.958;2023-02-22T05:06:58;1.90;99.90
2603;DHT22;1311;47.966;7.958;2023-02-22T05:09:25;1.80;99.90
2603;DHT22;1311;47.966;7.958;2023-02-22T05:11:52;1.80;99.90
2603;DHT22;1311;47.966;7.958;2023-02-22T05:14:19;1.70;99.90
2603;DHT22;1311;47.966;7.958;2023-02-22T05:16:48;1.70;99.90
2603;DHT22;1311;47.966;7.958;2023-02-22T05:19:15;1.70;99.90
2603;DHT22;1311;47.966;7.958;2023-02-22T05:21:41;1.80;99.90
2603;DHT22;1311;47.966;7.958;2023-02-22T05:24:08;1.80;99.90
2603;DHT22;1311;47.966;7.958;2023-02-22T05:26:35;1.80;99.90
2603;DHT22;1311;47.966;7.958;2023-02-22T05:29:02;1.70;99.90
2603;DHT22;1311;47.966;7.958;2023-02-22T05:31:28;1.70;99.90
2603;DHT22;1311;47.966;7.958;2023-02-22T05:33:56;1.70;99.90
2603;DHT22;1311;47.966;7.958;2023-02-22T05:36:23;1.70;99.90
2603;DHT22;1311;47.966;7.958;2023-02-22T05:38:50;1.70;99.90
2603;DHT22;1311;47.966;7.958;2023-02-22T05:41:17;1.70;99.90
2603;DHT22;1311;47.966;7.958;2023-02-22T05:43:43;1.70;99.90
2603;DHT22;1311;47.966;7.958;2023-02-22T05:46:10;1.70;99.90
2603;DHT22;1311;47.966;7.958;2023-02-22T05:48:37;1.90;99.90
2603;DHT22;1311;47.966;7.958;2023-02-22T05:51:05;2.00;99.90
2603;DHT22;1311;47.966;7.958;2023-02-22T05:53:34;1.90;99.90
2603;DHT22;1311;47.966;7.958;2023-02-22T05:56:01;2.00;99.90
2603;DHT22;1311;47.966;7.958;2023-02-22T05:58:31;1.90;99.90
2603;DHT22;1311;47.966;7.958;2023-02-22T06:00:58;1.90;99.90
2603;DHT22;1311;47.966;7.958;2023-02-22T06:03:25;1.80;99.90
2603;DHT22;1311;47.966;7.958;2023-02-22T06:05:52;1.90;99.90
2603;DHT22;1311;47.966;7.958;2023-02-22T06:08:20;1.90;99.90
2603;DHT22;1311;47.966;7.958;2023-02-22T06:10:47;1.80;99.90
2603;DHT22;1311;47.966;7.958;2023-02-22T06:13:13;1.80;99.90
2603;DHT22;1311;47.966;7.958;2023-02-22T06:15:40;1.90;99.90
2603;DHT22;1311;47.966;7.958;2023-02-22T06:18:07;1.90;99.90
2603;DHT22;1311;47.966;7.958;2023-02-22T06:20:33;1.90;99.90
2603;DHT22;1311;47.966;7.958;2023-02-22T06:23:00;2.00;99.90
2603;DHT22;1311;47.966;7.958;2023-02-22T06:25:30;2.00;99.90
2603;DHT22;1311;47.966;7.958;2023-02-22T06:27:58;2.10;99.90
2603;DHT22;1311;47.966;7.958;2023-02-22T06:30:25;2.10;99.90
2603;DHT22;1311;47.966;7.958;2023-02-22T06:32:52;2.10;99.90
2603;DHT22;1311;47.966;7.958;2023-02-22T06:35:20;2.20;99.90
2603;DHT22;1311;47.966;7.958;2023-02-22T06:37:47;2.30;99.90
2603;DHT22;1311;47.966;7.958;2023-02-22T06:40:14;2.30;99.90
2603;DHT22;1311;47.966;7.958;2023-02-22T06:42:42;2.30;99.90
2603;DHT22;1311;47.966;7.958;2023-02-22T06:45:09;2.30;99.90
2603;DHT22;1311;47.966;7.958;2023-02-22T06:47:37;2.40;99.90
2603;DHT22;1311;47.966;7.958;2023-02-22T06:50:06;2.40;99.90
2603;DHT22;1311;47.966;7.958;2023-02-22T06:52:33;2.50;99.90
2603;DHT22;1311;47.966;7.958;2023-02-22T06:54:59;2.50;99.90
2603;DHT22;1311;47.966;7.958;2023-02-22T06:57:28;2.50;99.90
2603;DHT22;1311;47.966;7.958;2023-02-22T06:59:56;2.60;99.90
2603;DHT22;1311;47.966;7.958;2023-02-22T07:02:23;2.60;99.90
2603;DHT22;1311;47.966;7.958;2023-02-22T07:04:50;2.70;99.90
2603;DHT22;1311;47.966;7.958;2023-02-22T07:07:17;2.70;99.90
2603;DHT22;1311;47.966;7.958;2023-02-22T07:09:45;2.70;99.90
2603;DHT22;1311;47.966;7.958;2023-02-22T07:12:12;2.70;99.90
2603;DHT22;1311;47.966;7.958;2023-02-22T07:14:39;2.80;99.90
2603;DHT22;1311;47.966;7.958;2023-02-22T07:17:07;2.80;99.90
2603;DHT22;1311;47.966;7.958;2023-02-22T07:19:34;2.90;99.90
2603;DHT22;1311;47.966;7.958;2023-02-22T07:22:00;2.90;99.90
2603;DHT22;1311;47.966;7.958;2023-02-22T07:24:30;3.00;99.90
2603;DHT22;1311;47.966;7.958;2023-02-22T07:26:59;3.10;99.90
2603;DHT22;1311;47.966;7.958;2023-02-22T07:29:26;3.10;99.90
2603;DHT22;1311;47.966;7.958;2023-02-22T07:31:53;3.20;99.90
2603;DHT22;1311;47.966;7.958;2023-02-22T07:34:21;3.40;99.90
2603;DHT22;1311;47.966;7.958;2023-02-22T07:36:48;3.50;99.90
2603;DHT22;1311;47.966;7.958;2023-02-22T07:39:14;3.60;99.90
2603;DHT22;1311;47.966;7.958;2023-02-22T07:41:41;3.70;99.90
2603;DHT22;1311;47.966;7.958;2023-02-22T07:44:08;3.80;99.90
2603;DHT22;1311;47.966;7.958;2023-02-22T07:46:35;3.80;99.90
2603;DHT22;1311;47.966;7.958;2023-02-22T07:49:02;3.90;99.90
2603;DHT22;1311;47.966;7.958;2023-02-22T07:51:30;4.00;99.90
2603;DHT22;1311;47.966;7.958;2023-02-22T07:53:57;4.10;99.90
2603;DHT22;1311;47.966;7.958;2023-02-22T07:56:23;4.20;99.90
2603;DHT22;1311;47.966;7.958;2023-02-22T07:58:50;4.30;99.90
2603;DHT22;1311;47.966;7.958;2023-02-22T08:01:17;4.40;99.90
2603;DHT22;1311;47.966;7.958;2023-02-22T08:03:44;4.50;99.90
2603;DHT22;1311;47.966;7.958;2023-02-22T08:06:12;4.60;99.90
2603;DHT22;1311;47.966;7.958;2023-02-22T08:08:40;4.70;99.90
2603;DHT22;1311;47.966;7.958;2023-02-22T08:11:07;4.90;99.90
2603;DHT22;1311;47.966;7.958;2023-02-22T08:13:34;5.00;99.90
2603;DHT22;1311;47.966;7.958;2023-02-22T08:16:02;5.20;99.90
2603;DHT22;1311;47.966;7.958;2023-02-22T08:18:29;5.30;99.90
2603;DHT22;1311;47.966;7.958;2023-02-22T08:20:55;5.50;99.90
2603;DHT22;1311;47.966;7.958;2023-02-22T08:23:24;5.70;99.90
2603;DHT22;1311;47.966;7.958;2023-02-22T08:25:53;5.90;99.90
2603;DHT22;1311;47.966;7.958;2023-02-22T08:28:21;6.20;99.90
2603;DHT22;1311;47.966;7.958;2023-02-22T08:30:49;6.40;99.90
2603;DHT22;1311;47.966;7.958;2023-02-22T08:33:16;6.60;99.90
2603;DHT22;1311;47.966;7.958;2023-02-22T08:35:44;6.80;99.90
2603;DHT22;1311;47.966;7.958;2023-02-22T08:38:18;7.10;99.90
2603;DHT22;1311;47.966;7.958;2023-02-22T08:40:47;7.30;99.90
2603;DHT22;1311;47.966;7.958;2023-02-22T08:43:15;7.50;99.90
2603;DHT22;1311;47.966;7.958;2023-02-22T08:45:43;7.70;99.90
2603;DHT22;1311;47.966;7.958;2023-02-22T08:48:10;7.90;99.90
2603;DHT22;1311;47.966;7.958;2023-02-22T08:50:38;8.20;99.90
2603;DHT22;1311;47.966;7.958;2023-02-22T08:53:06;8.60;99.90
2603;DHT22;1311;47.966;7.958;2023-02-22T08:55:36;8.60;99.90
2603;DHT22;1311;47.966;7.958;2023-02-22T08:58:04;8.70;99.90
2603;DHT22;1311;47.966;7.958;2023-02-22T09:00:35;8.80;99.90
2603;DHT22;1311;47.966;7.958;2023-02-22T09:03:04;8.90;99.90
2603;DHT22;1311;47.966;7.958;2023-02-22T09:05:31;9.20;99.90
2603;DHT22;1311;47.966;7.958;2023-02-22T09:07:58;9.40;99.90
2603;DHT22;1311;47.966;7.958;2023-02-22T09:10:27;9.60;99.90
2603;DHT22;1311;47.966;7.958;2023-02-22T09:12:54;9.80;99.90
2603;DHT22;1311;47.966;7.958;2023-02-22T09:15:23;9.90;99.90
2603;DHT22;1311;47.966;7.958;2023-02-22T09:17:56;10.00;99.90
2603;DHT22;1311;47.966;7.958;2023-02-22T09:20:24;10.20;99.90
2603;DHT22;1311;47.966;7.958;2023-02-22T09:22:51;10.40;99.90
2603;DHT22;1311;47.966;7.958;2023-02-22T09:25:19;10.70;99.90
2603;DHT22;1311;47.966;7.958;2023-02-22T09:27:47;10.80;99.90
2603;DHT22;1311;47.966;7.958;2023-02-22T09:30:20;11.00;99.90
2603;DHT22;1311;47.966;7.958;2023-02-22T09:32:48;11.20;99.90
2603;DHT22;1311;47.966;7.958;2023-02-22T09:35:16;11.30;99.90
2603;DHT22;1311;47.966;7.958;2023-02-22T09:37:43;11.50;99.90
2603;DHT22;1311;47.966;7.958;2023-02-22T09:40:15;11.60;99.90
2603;DHT22;1311;47.966;7.958;2023-02-22T09:43:00;11.80;99.90
2603;DHT22;1311;47.966;7.958;2023-02-22T09:45:31;11.90;99.90
2603;DHT22;1311;47.966;7.958;2023-02-22T09:48:05;12.10;99.90
2603;DHT22;1311;47.966;7.958;2023-02-22T09:50:37;12.30;99.90
2603;DHT22;1311;47.966;7.958;2023-02-22T09:53:14;12.30;99.90
2603;DHT22;1311;47.966;7.958;2023-02-22T09:55:48;12.50;99.90
2603;DHT22;1311;47.966;7.958;2023-02-22T09:58:20;12.60;99.90
2603;DHT22;1311;47.966;7.958;2023-02-22T10:00:50;12.80;99.90
2603;DHT22;1311;47.966;7.958;2023-02-22T10:03:24;12.80;99.90
2603;DHT22;1311;47.966;7.958;2023-02-22T10:05:57;12.70;99.90
2603;DHT22;1311;47.966;7.958;2023-02-22T10:08:28;12.80;99.90
2603;DHT22;1311;47.966;7.958;2023-02-22T10:11:02;12.90;99.90
2603;DHT22;1311;47.966;7.958;2023-02-22T10:13:37;13.00;99.90
2603;DHT22;1311;47.966;7.958;2023-02-22T10:16:14;13.00;99.90
2603;DHT22;1311;47.966;7.958;2023-02-22T10:19:09;13.10;99.90
2603;DHT22;1311;47.966;7.958;2023-02-22T10:24:43;13.60;99.90
2603;DHT22;1311;47.966;7.958;2023-02-22T10:27:16;13.70;99.90
2603;DHT22;1311;47.966;7.958;2023-02-22T10:29:46;13.80;99.90
2603;DHT22;1311;47.966;7.958;2023-02-22T10:32:16;13.80;99.90
2603;DHT22;1311;47.966;7.958;2023-02-22T10:34:47;13.70;99.90
2603;DHT22;1311;47.966;7.958;2023-02-22T10:37:23;13.60;99.90
2603;DHT22;1311;47.966;7.958;2023-02-22T10:39:54;13.60;99.90
2603;DHT22;1311;47.966;7.958;2023-02-22T10:42:25;13.60;99.90
2603;DHT22;1311;47.966;7.958;2023-02-22T10:44:52;13.50;99.90
2603;DHT22;1311;47.966;7.958;2023-02-22T10:47:19;13.60;99.90
2603;DHT22;1311;47.966;7.958;2023-02-22T10:49:50;13.70;99.90
2603;DHT22;1311;47.966;7.958;2023-02-22T10:52:24;14.00;99.90
2603;DHT22;1311;47.966;7.958;2023-02-22T10:54:54;14.10;99.90
2603;DHT22;1311;47.966;7.958;2023-02-22T10:57:23;14.10;99.90
2603;DHT22;1311;47.966;7.958;2023-02-22T10:59:50;14.30;99.90
2603;DHT22;1311;47.966;7.958;2023-02-22T11:02:20;14.40;99.90
2603;DHT22;1311;47.966;7.958;2023-02-22T11:04:49;14.40;99.90
2603;DHT22;1311;47.966;7.958;2023-02-22T11:07:19;14.40;99.90
2603;DHT22;1311;47.966;7.958;2023-02-22T11:09:51;14.30;99.90
2603;DHT22;1311;47.966;7.958;2023-02-22T11:12:24;14.20;99.90
2603;DHT22;1311;47.966;7.958;2023-02-22T11:14:51;14.30;99.90
2603;DHT22;1311;47.966;7.958;2023-02-22T11:17:26;14.30;99.90
2603;DHT22;1311;47.966;7.958;2023-02-22T11:19:54;14.70;99.90
2603;DHT22;1311;47.966;7.958;2023-02-22T11:22:24;14.90;99.90
2603;DHT22;1311;47.966;7.958;2023-02-22T11:24:55;14.70;99.90
2603;DHT22;1311;47.966;7.958;2023-02-22T11:27:29;14.70;99.90
2603;DHT22;1311;47.966;7.958;2023-02-22T11:30:19;14.80;99.90
2603;DHT22;1311;47.966;7.958;2023-02-22T11:32:49;15.20;99.90
2603;DHT22;1311;47.966;7.958;2023-02-22T11:35:30;15.40;99.90
2603;DHT22;1311;47.966;7.958;2023-02-22T11:38:14;15.60;99.90
2603;DHT22;1311;47.966;7.958;2023-02-22T11:40:43;15.60;99.90
2603;DHT22;1311;47.966;7.958;2023-02-22T11:43:15;15.60;99.90
2603;DHT22;1311;47.966;7.958;2023-02-22T11:45:58;15.70;99.90
2603;DHT22;1311;47.966;7.958;2023-02-22T11:48:30;15.80;99.90
2603;DHT22;1311;47.966;7.958;2023-02-22T11:51:09;16.00;99.90
2603;DHT22;1311;47.966;7.958;2023-02-22T11:53:52;15.90;99.90
2603;DHT22;1311;47.966;7.958;2023-02-22T11:56:27;15.70;99.90
2603;DHT22;1311;47.966;7.958;2023-02-22T11:59:03;15.90;99.90
2603;DHT22;1311;47.966;7.958;2023-02-22T12:01:40;16.00;99.60
2603;DHT22;1311;47.966;7.958;2023-02-22T12:07:22;15.90;95.10
2603;DHT22;1311;47.966;7.958;2023-02-22T12:09:59;15.70;92.90
2603;DHT22;1311;47.966;7.958;2023-02-22T12:12:37;15.60;94.80
2603;DHT22;1311;47.966;7.958;2023-02-22T12:15:11;15.60;99.20
2603;DHT22;1311;47.966;7.958;2023-02-22T12:17:45;15.40;98.80
2603;DHT22;1311;47.966;7.958;2023-02-22T12:20:17;15.40;99.90
2603;DHT22;1311;47.966;7.958;2023-02-22T12:23:01;15.20;99.90
2603;DHT22;1311;47.966;7.958;2023-02-22T12:25:34;15.10;99.90
2603;DHT22;1311;47.966;7.958;2023-02-22T12:28:13;15.10;99.90
2603;DHT22;1311;47.966;7.958;2023-02-22T12:30:44;14.90;99.90
2603;DHT22;1311;47.966;7.958;2023-02-22T12:33:16;14.80;99.90
2603;DHT22;1311;47.966;7.958;2023-02-22T12:35:50;15.00;99.90
2603;DHT22;1311;47.966;7.958;2023-02-22T12:38:21;14.90;99.90
2603;DHT22;1311;47.966;7.958;2023-02-22T12:40:55;14.80;99.90
2603;DHT22;1311;47.966;7.958;2023-02-22T12:43:28;14.50;99.90
2603;DHT22;1311;47.966;7.958;2023-02-22T12:46:01;14.60;99.90
2603;DHT22;1311;47.966;7.958;2023-02-22T12:48:36;14.60;99.90
2603;DHT22;1311;47.966;7.958;2023-02-22T12:51:15;14.70;99.90
2603;DHT22;1311;47.966;7.958;2023-02-22T12:53:48;14.70;99.90
2603;DHT22;1311;47.966;7.958;2023-02-22T12:56:21;14.70;99.90
2603;DHT22;1311;47.966;7.958;2023-02-22T12:58:56;14.70;99.90
2603;DHT22;1311;47.966;7.958;2023-02-22T13:01:31;14.70;99.90
2603;DHT22;1311;47.966;7.958;2023-02-22T13:03:59;14.50;99.90
2603;DHT22;1311;47.966;7.958;2023-02-22T13:06:41;14.60;99.90
2603;DHT22;1311;47.966;7.958;2023-02-22T13:09:32;14.60;99.90
2603;DHT22;1311;47.966;7.958;2023-02-22T13:12:08;14.70;99.90
2603;DHT22;1311;47.966;7.958;2023-02-22T13:14:48;14.60;99.90
2603;DHT22;1311;47.966;7.958;2023-02-22T13:17:22;14.70;99.90
2603;DHT22;1311;47.966;7.958;2023-02-22T13:19:58;14.70;99.90
2603;DHT22;1311;47.966;7.958;2023-02-22T13:22:31;14.70;99.90
2603;DHT22;1311;47.966;7.958;2023-02-22T13:25:02;14.70;99.90
2603;DHT22;1311;47.966;7.958;2023-02-22T13:27:37;14.90;99.90
2603;DHT22;1311;47.966;7.958;2023-02-22T13:30:16;14.80;99.90
2603;DHT22;1311;47.966;7.958;2023-02-22T13:32:58;14.40;99.90
2603;DHT22;1311;47.966;7.958;2023-02-22T13:35:41;14.40;99.90
2603;DHT22;1311;47.966;7.958;2023-02-22T13:38:29;14.40;99.90
2603;DHT22;1311;47.966;7.958;2023-02-22T13:41:36;14.40;99.90
2603;DHT22;1311;47.966;7.958;2023-02-22T13:47:43;14.00;99.90
2603;DHT22;1311;47.966;7.958;2023-02-22T13:50:34;14.00;99.90
2603;DHT22;1311;47.966;7.958;2023-02-22T13:53:11;14.00;99.90
2603;DHT22;1311;47.966;7.958;2023-02-22T13:55:40;13.80;99.90
2603;DHT22;1311;47.966;7.958;2023-02-22T13:58:11;13.90;99.90
2603;DHT22;1311;47.966;7.958;2023-02-22T14:00:45;13.80;99.90
2603;DHT22;1311;47.966;7.958;2023-02-22T14:03:35;13.80;99.90
2603;DHT22;1311;47.966;7.958;2023-02-22T14:06:06;13.50;99.90
2603;DHT22;1311;47.966;7.958;2023-02-22T14:08:40;13.60;99.90
2603;DHT22;1311;47.966;7.958;2023-02-22T14:14:21;13.50;99.90
2603;DHT22;1311;47.966;7.958;2023-02-22T14:17:15;13.40;99.90
2603;DHT22;1311;47.966;7.958;2023-02-22T14:22:45;13.40;99.90
2603;DHT22;1311;47.966;7.958;2023-02-22T14:25:28;13.40;99.90
2603;DHT22;1311;47.966;7.958;2023-02-22T14:27:57;13.30;99.90
2603;DHT22;1311;47.966;7.958;2023-02-22T14:30:26;13.20;99.90
2603;DHT22;1311;47.966;7.958;2023-02-22T14:32:53;13.10;99.90
2603;DHT22;1311;47.966;7.958;2023-02-22T14:35:23;13.00;99.90
2603;DHT22;1311;47.966;7.958;2023-02-22T14:37:53;12.90;99.90
2603;DHT22;1311;47.966;7.958;2023-02-22T14:40:23;12.90;99.90
2603;DHT22;1311;47.966;7.958;2023-02-22T14:42:59;13.00;99.90
2603;DHT22;1311;47.966;7.958;2023-02-22T14:45:29;13.00;99.90
2603;DHT22;1311;47.966;7.958;2023-02-22T14:48:00;13.00;99.90
2603;DHT22;1311;47.966;7.958;2023-02-22T14:50:42;13.00;99.90
2603;DHT22;1311;47.966;7.958;2023-02-22T14:53:19;13.10;99.90
2603;DHT22;1311;47.966;7.958;2023-02-22T14:55:52;12.80;99.90
2603;DHT22;1311;47.966;7.958;2023-02-22T14:58:24;12.90;99.90
2603;DHT22;1311;47.966;7.958;2023-02-22T15:00:54;12.80;99.90
2603;DHT22;1311;47.966;7.958;2023-02-22T15:03:27;12.80;99.90
2603;DHT22;1311;47.966;7.958;2023-02-22T15:06:13;12.70;99.90
2603;DHT22;1311;47.966;7.958;2023-02-22T15:08:40;12.70;99.90
2603;DHT22;1311;47.966;7.958;2023-02-22T15:11:19;12.70;99.90
2603;DHT22;1311;47.966;7.958;2023-02-22T15:13:49;12.60;99.90
2603;DHT22;1311;47.966;7.958;2023-02-22T15:16:17;12.70;99.90
2603;DHT22;1311;47.966;7.958;2023-02-22T15:18:46;12.60;99.90
2603;DHT22;1311;47.966;7.958;2023-02-22T15:21:18;12.60;99.90
2603;DHT22;1311;47.966;7.958;2023-02-22T15:23:46;12.60;99.90
2603;DHT22;1311;47.966;7.958;2023-02-22T15:26:20;12.60;99.90
2603;DHT22;1311;47.966;7.958;2023-02-22T15:28:51;12.60;99.90
2603;DHT22;1311;47.966;7.958;2023-02-22T15:31:30;12.50;99.90
2603;DHT22;1311;47.966;7.958;2023-02-22T15:34:08;12.50;99.90
2603;DHT22;1311;47.966;7.958;2023-02-22T15:36:37;12.40;99.90
2603;DHT22;1311;47.966;7.958;2023-02-22T15:39:04;12.50;99.90
2603;DHT22;1311;47.966;7.958;2023-02-22T15:41:34;12.40;99.90
2603;DHT22;1311;47.966;7.958;2023-02-22T15:44:04;12.30;99.90
2603;DHT22;1311;47.966;7.958;2023-02-22T15:46:32;12.20;99.90
2603;DHT22;1311;47.966;7.958;2023-02-22T15:49:04;12.20;99.90
2603;DHT22;1311;47.966;7.958;2023-02-22T15:51:32;12.20;99.90
2603;DHT22;1311;47.966;7.958;2023-02-22T15:54:02;12.10;99.90
2603;DHT22;1311;47.966;7.958;2023-02-22T15:56:31;12.00;99.90
2603;DHT22;1311;47.966;7.958;2023-02-22T15:59:02;12.00;99.90
2603;DHT22;1311;47.966;7.958;2023-02-22T16:01:37;12.00;99.90
2603;DHT22;1311;47.966;7.958;2023-02-22T16:04:04;11.90;99.90
2603;DHT22;1311;47.966;7.958;2023-02-22T16:06:34;11.90;99.90
2603;DHT22;1311;47.966;7.958;2023-02-22T16:09:08;11.80;99.90
2603;DHT22;1311;47.966;7.958;2023-02-22T16:11:37;11.80;99.90
2603;DHT22;1311;47.966;7.958;2023-02-22T16:14:23;11.80;99.90
2603;DHT22;1311;47.966;7.958;2023-02-22T16:17:10;11.70;99.90
2603;DHT22;1311;47.966;7.958;2023-02-22T16:19:38;11.70;99.90
2603;DHT22;1311;47.966;7.958;2023-02-22T16:22:19;11.60;99.90
2603;DHT22;1311;47.966;7.958;2023-02-22T16:24:53;11.60;99.90
2603;DHT22;1311;47.966;7.958;2023-02-22T16:27:21;11.60;99.90
2603;DHT22;1311;47.966;7.958;2023-02-22T16:30:15;11.60;99.90
2603;DHT22;1311;47.966;7.958;2023-02-22T16:32:47;11.50;99.90
2603;DHT22;1311;47.966;7.958;2023-02-22T16:35:15;11.50;99.90
2603;DHT22;1311;47.966;7.958;2023-02-22T16:37:43;11.40;99.90
2603;DHT22;1311;47.966;7.958;2023-02-22T16:40:20;11.40;99.90
2603;DHT22;1311;47.966;7.958;2023-02-22T16:42:47;11.40;99.90
2603;DHT22;1311;47.966;7.958;2023-02-22T16:45:16;11.40;99.90
2603;DHT22;1311;47.966;7.958;2023-02-22T16:47:43;11.40;99.90
2603;DHT22;1311;47.966;7.958;2023-02-22T16:50:10;11.40;99.90
2603;DHT22;1311;47.966;7.958;2023-02-22T16:52:39;11.30;99.90
2603;DHT22;1311;47.966;7.958;2023-02-22T16:55:09;11.30;99.90